ePrivacy and GPDR Cookie Consent by Cookie Consent
EmailTwitter


Surface observations / Quebec / CYUL (71627)

Regions: Quebec | Canada | USA | Europe | France | UK | Elsewhere
Station
Display
Info & Location for CYUL (71627) | Help decoding METAR

Weather Conditions observed on 2022/09/27 at 23:00 UTC at MONTREAL INTL A, QB (CYUL)

Sky conditions: variable clouds.

Temperature: 15.0 Celsius.

Dewpoint: 11.0 Celsius.

Relative Humidity: 77%

Winds: West at 4 km/h or 2 knots.

Mean Sea level Pressure: 100.81 kilopascals.

Altimeter Setting (QNH): 100.78 kilopascals or 29.76 inches of mercury.

Horizontal visibility: 15.00 statute miles or 24.00 kilometers.

Coded METAR:

CYUL 272300Z 27002KT 15SM FEW035 SCT180 15/11 A2976 RMK SC2AC1 SLP081 DENSITY

ALT 300FT=